sensor_id;sensor_type;location;lat;lon;timestamp;pressure;altitude;pressure_sealevel;temperature;humidity
39789;BME280;25478;42.626;23.320;2022-10-16T00:00:30;93735.56;;;6.87;91.23
39789;BME280;25478;42.626;23.320;2022-10-16T00:02:56;93729.28;;;6.76;91.86
39789;BME280;25478;42.626;23.320;2022-10-16T00:05:21;93731.91;;;6.76;91.77
39789;BME280;25478;42.626;23.320;2022-10-16T00:07:47;93744.75;;;6.81;91.77
39789;BME280;25478;42.626;23.320;2022-10-16T00:10:12;93744.31;;;6.79;91.65
39789;BME280;25478;42.626;23.320;2022-10-16T00:12:38;93742.69;;;6.74;90.97
39789;BME280;25478;42.626;23.320;2022-10-16T00:15:04;93744.09;;;6.72;91.93
39789;BME280;25478;42.626;23.320;2022-10-16T00:17:30;93733.91;;;6.67;91.53
39789;BME280;25478;42.626;23.320;2022-10-16T00:19:55;93746.06;;;6.75;91.92
39789;BME280;25478;42.626;23.320;2022-10-16T00:22:22;93741.59;;;6.75;91.10
39789;BME280;25478;42.626;23.320;2022-10-16T00:24:47;93741.50;;;6.72;91.13
39789;BME280;25478;42.626;23.320;2022-10-16T00:27:13;93718.97;;;6.55;91.58
39789;BME280;25478;42.626;23.320;2022-10-16T00:29:38;93750.00;;;6.69;91.72
39789;BME280;25478;42.626;23.320;2022-10-16T00:32:04;93762.69;;;6.67;91.45
39789;BME280;25478;42.626;23.320;2022-10-16T00:34:29;93759.19;;;6.63;91.32
39789;BME280;25478;42.626;23.320;2022-10-16T00:36:55;93768.13;;;6.62;91.87
39789;BME280;25478;42.626;23.320;2022-10-16T00:39:20;93757.91;;;6.57;91.78
39789;BME280;25478;42.626;23.320;2022-10-16T00:41:47;93769.44;;;6.56;91.95
39789;BME280;25478;42.626;23.320;2022-10-16T00:44:42;93769.78;;;6.54;91.76
39789;BME280;25478;42.626;23.320;2022-10-16T00:47:09;93759.69;;;6.40;91.91
39789;BME280;25478;42.626;23.320;2022-10-16T00:49:35;93763.59;;;6.46;92.07
39789;BME280;25478;42.626;23.320;2022-10-16T00:52:00;93742.91;;;6.41;92.60
39789;BME280;25478;42.626;23.320;2022-10-16T00:54:28;93750.97;;;6.48;91.95
39789;BME280;25478;42.626;23.320;2022-10-16T00:56:56;93734.63;;;6.39;92.16
39789;BME280;25478;42.626;23.320;2022-10-16T00:59:29;93752.47;;;6.49;92.20
39789;BME280;25478;42.626;23.320;2022-10-16T01:01:56;93724.31;;;6.31;92.53
39789;BME280;25478;42.626;23.320;2022-10-16T01:04:24;93756.19;;;6.48;92.33
39789;BME280;25478;42.626;23.320;2022-10-16T01:17:07;93758.47;;;6.38;91.90
39789;BME280;25478;42.626;23.320;2022-10-16T01:22:36;93751.63;;;6.33;92.78
39789;BME280;25478;42.626;23.320;2022-10-16T01:25:09;93756.97;;;6.37;91.90
39789;BME280;25478;42.626;23.320;2022-10-16T01:27:40;93758.16;;;6.39;92.71
39789;BME280;25478;42.626;23.320;2022-10-16T01:30:12;93754.00;;;6.38;92.39
39789;BME280;25478;42.626;23.320;2022-10-16T01:32:45;93747.59;;;6.36;92.29
39789;BME280;25478;42.626;23.320;2022-10-16T01:35:24;93743.78;;;6.33;92.96
39789;BME280;25478;42.626;23.320;2022-10-16T01:37:56;93741.50;;;6.32;93.18
39789;BME280;25478;42.626;23.320;2022-10-16T01:40:26;93744.44;;;6.30;93.09
39789;BME280;25478;42.626;23.320;2022-10-16T01:43:15;93743.25;;;6.28;92.67
39789;BME280;25478;42.626;23.320;2022-10-16T01:45:44;93740.22;;;6.26;93.16
39789;BME280;25478;42.626;23.320;2022-10-16T01:48:13;93731.06;;;6.19;92.84
39789;BME280;25478;42.626;23.320;2022-10-16T01:50:43;93747.94;;;6.22;92.89
39789;BME280;25478;42.626;23.320;2022-10-16T01:53:12;93751.97;;;6.19;93.33
39789;BME280;25478;42.626;23.320;2022-10-16T01:55:43;93745.00;;;6.11;92.90
39789;BME280;25478;42.626;23.320;2022-10-16T01:58:12;93750.38;;;6.15;93.35
39789;BME280;25478;42.626;23.320;2022-10-16T02:00:42;93745.34;;;6.10;92.85
39789;BME280;25478;42.626;23.320;2022-10-16T02:03:10;93752.09;;;6.11;93.49
39789;BME280;25478;42.626;23.320;2022-10-16T02:08:05;93746.78;;;6.07;93.60
39789;BME280;25478;42.626;23.320;2022-10-16T02:10:30;93753.84;;;6.07;93.30
39789;BME280;25478;42.626;23.320;2022-10-16T02:15:34;93762.47;;;6.07;93.86
39789;BME280;25478;42.626;23.320;2022-10-16T02:18:04;93740.03;;;5.94;94.20
39789;BME280;25478;42.626;23.320;2022-10-16T02:20:34;93774.44;;;6.08;94.23
39789;BME280;25478;42.626;23.320;2022-10-16T02:23:03;93775.19;;;6.09;94.52
39789;BME280;25478;42.626;23.320;2022-10-16T02:25:35;93776.28;;;6.08;93.79
39789;BME280;25478;42.626;23.320;2022-10-16T02:28:14;93775.06;;;6.05;94.18
39789;BME280;25478;42.626;23.320;2022-10-16T02:30:46;93784.75;;;6.05;93.93
39789;BME280;25478;42.626;23.320;2022-10-16T02:33:14;93780.97;;;6.02;94.17
39789;BME280;25478;42.626;23.320;2022-10-16T02:35:43;93788.03;;;6.02;94.57
39789;BME280;25478;42.626;23.320;2022-10-16T02:38:10;93772.13;;;5.95;93.95
39789;BME280;25478;42.626;23.320;2022-10-16T02:40:36;93770.75;;;5.97;93.79
39789;BME280;25478;42.626;23.320;2022-10-16T02:43:04;93782.72;;;5.98;94.52
39789;BME280;25478;42.626;23.320;2022-10-16T02:45:30;93755.34;;;5.83;94.75
39789;BME280;25478;42.626;23.320;2022-10-16T02:47:56;93786.72;;;5.96;94.05
39789;BME280;25478;42.626;23.320;2022-10-16T02:50:22;93793.03;;;5.95;94.52
39789;BME280;25478;42.626;23.320;2022-10-16T02:52:48;93783.00;;;5.84;94.15
39789;BME280;25478;42.626;23.320;2022-10-16T02:55:13;93785.41;;;5.89;94.75
39789;BME280;25478;42.626;23.320;2022-10-16T02:57:39;93793.56;;;5.88;94.41
39789;BME280;25478;42.626;23.320;2022-10-16T03:00:07;93767.34;;;5.72;94.76
39789;BME280;25478;42.626;23.320;2022-10-16T03:02:33;93773.94;;;5.70;93.97
39789;BME280;25478;42.626;23.320;2022-10-16T03:04:58;93803.03;;;5.80;94.99
39789;BME280;25478;42.626;23.320;2022-10-16T03:07:24;93794.31;;;5.76;95.06
39789;BME280;25478;42.626;23.320;2022-10-16T03:09:49;93796.94;;;5.76;94.68
39789;BME280;25478;42.626;23.320;2022-10-16T03:12:15;93801.72;;;5.74;95.03
39789;BME280;25478;42.626;23.320;2022-10-16T03:14:41;93802.81;;;5.73;94.72
39789;BME280;25478;42.626;23.320;2022-10-16T03:17:06;93803.44;;;5.70;95.12
39789;BME280;25478;42.626;23.320;2022-10-16T03:19:32;93806.38;;;5.69;94.59
39789;BME280;25478;42.626;23.320;2022-10-16T03:21:57;93804.44;;;5.65;94.96
39789;BME280;25478;42.626;23.320;2022-10-16T03:24:23;93809.22;;;5.63;94.43
39789;BME280;25478;42.626;23.320;2022-10-16T03:26:48;93813.22;;;5.61;95.17
39789;BME280;25478;42.626;23.320;2022-10-16T03:29:14;93818.44;;;5.61;95.17
39789;BME280;25478;42.626;23.320;2022-10-16T03:31:40;93812.78;;;5.59;94.81
39789;BME280;25478;42.626;23.320;2022-10-16T03:34:05;93810.38;;;5.54;95.51
39789;BME280;25478;42.626;23.320;2022-10-16T03:36:31;93804.28;;;5.50;95.22
39789;BME280;25478;42.626;23.320;2022-10-16T03:38:56;93784.78;;;5.35;94.88
39789;BME280;25478;42.626;23.320;2022-10-16T03:41:22;93809.72;;;5.45;95.12
39789;BME280;25478;42.626;23.320;2022-10-16T03:43:47;93795.13;;;5.31;94.76
39789;BME280;25478;42.626;23.320;2022-10-16T03:46:13;93792.50;;;5.31;95.60
39789;BME280;25478;42.626;23.320;2022-10-16T03:48:38;93818.31;;;5.45;95.78
39789;BME280;25478;42.626;23.320;2022-10-16T03:51:05;93802.97;;;5.44;95.17
39789;BME280;25478;42.626;23.320;2022-10-16T03:53:31;93801.19;;;5.35;95.34
39789;BME280;25478;42.626;23.320;2022-10-16T03:55:56;93796.41;;;5.37;95.92
39789;BME280;25478;42.626;23.320;2022-10-16T03:58:22;93781.50;;;5.26;95.71
39789;BME280;25478;42.626;23.320;2022-10-16T04:00:47;93783.34;;;5.25;95.33
39789;BME280;25478;42.626;23.320;2022-10-16T04:03:13;93792.25;;;5.24;96.12
39789;BME280;25478;42.626;23.320;2022-10-16T04:05:39;93793.59;;;5.30;95.81
39789;BME280;25478;42.626;23.320;2022-10-16T04:08:05;93798.81;;;5.30;96.39
39789;BME280;25478;42.626;23.320;2022-10-16T04:10:30;93798.34;;;5.28;96.01
39789;BME280;25478;42.626;23.320;2022-10-16T04:12:56;93793.34;;;5.23;96.43
39789;BME280;25478;42.626;23.320;2022-10-16T04:15:25;93799.09;;;5.29;96.55
39789;BME280;25478;42.626;23.320;2022-10-16T04:17:50;93797.47;;;5.24;96.43
39789;BME280;25478;42.626;23.320;2022-10-16T04:20:17;93801.72;;;5.29;96.72
39789;BME280;25478;42.626;23.320;2022-10-16T04:22:42;93782.34;;;5.18;96.48
39789;BME280;25478;42.626;23.320;2022-10-16T04:25:08;93784.06;;;5.14;96.06
39789;BME280;25478;42.626;23.320;2022-10-16T04:27:34;93805.41;;;5.28;95.94
39789;BME280;25478;42.626;23.320;2022-10-16T04:30:00;93796.28;;;5.22;96.40
39789;BME280;25478;42.626;23.320;2022-10-16T04:32:26;93812.50;;;5.27;96.21
39789;BME280;25478;42.626;23.320;2022-10-16T04:34:52;93812.50;;;5.27;96.19
39789;BME280;25478;42.626;23.320;2022-10-16T04:37:18;93816.19;;;5.26;96.08
39789;BME280;25478;42.626;23.320;2022-10-16T04:39:43;93822.81;;;5.24;95.81
39789;BME280;25478;42.626;23.320;2022-10-16T04:42:10;93806.91;;;5.17;96.02
39789;BME280;25478;42.626;23.320;2022-10-16T04:44:36;93801.88;;;5.12;96.43
39789;BME280;25478;42.626;23.320;2022-10-16T04:47:01;93821.16;;;5.19;96.29
39789;BME280;25478;42.626;23.320;2022-10-16T04:49:27;93830.22;;;5.22;96.66
39789;BME280;25478;42.626;23.320;2022-10-16T04:51:53;93819.97;;;5.17;96.11
39789;BME280;25478;42.626;23.320;2022-10-16T04:54:18;93825.09;;;5.25;96.30
39789;BME280;25478;42.626;23.320;2022-10-16T04:56:43;93831.09;;;5.26;96.13
39789;BME280;25478;42.626;23.320;2022-10-16T04:59:16;93832.28;;;5.28;96.29
39789;BME280;25478;42.626;23.320;2022-10-16T05:01:42;93839.03;;;5.29;96.56
39789;BME280;25478;42.626;23.320;2022-10-16T05:04:08;93836.41;;;5.29;96.28
39789;BME280;25478;42.626;23.320;2022-10-16T05:06:34;93852.00;;;5.38;96.49
39789;BME280;25478;42.626;23.320;2022-10-16T05:08:59;93848.78;;;5.41;96.10
39789;BME280;25478;42.626;23.320;2022-10-16T05:11:25;93849.63;;;5.45;96.54
39789;BME280;25478;42.626;23.320;2022-10-16T05:13:50;93846.50;;;5.52;96.65
39789;BME280;25478;42.626;23.320;2022-10-16T05:16:16;93849.34;;;5.59;96.54
39789;BME280;25478;42.626;23.320;2022-10-16T05:18:41;93850.34;;;5.67;96.41
39789;BME280;25478;42.626;23.320;2022-10-16T05:21:07;93840.66;;;5.67;96.25
39789;BME280;25478;42.626;23.320;2022-10-16T05:23:33;93831.09;;;5.71;95.79
39789;BME280;25478;42.626;23.320;2022-10-16T05:25:59;93860.03;;;5.99;95.83
39789;BME280;25478;42.626;23.320;2022-10-16T05:28:25;93841.84;;;6.03;95.99
39789;BME280;25478;42.626;23.320;2022-10-16T05:30:51;93851.66;;;6.18;95.53
39789;BME280;25478;42.626;23.320;2022-10-16T05:33:17;93854.72;;;6.32;95.16
39789;BME280;25478;42.626;23.320;2022-10-16T05:35:42;93856.88;;;6.42;94.93
39789;BME280;25478;42.626;23.320;2022-10-16T05:38:09;93849.78;;;6.55;95.24
39789;BME280;25478;42.626;23.320;2022-10-16T05:40:34;93843.47;;;6.56;95.22
39789;BME280;25478;42.626;23.320;2022-10-16T05:43:00;93856.63;;;6.84;94.76
39789;BME280;25478;42.626;23.320;2022-10-16T05:45:26;93863.25;;;6.94;94.46
39789;BME280;25478;42.626;23.320;2022-10-16T05:47:51;93852.84;;;6.97;94.48
39789;BME280;25478;42.626;23.320;2022-10-16T05:50:17;93867.19;;;7.28;94.24
39789;BME280;25478;42.626;23.320;2022-10-16T05:52:42;93869.75;;;7.40;93.99
39789;BME280;25478;42.626;23.320;2022-10-16T05:55:08;93856.41;;;7.45;93.02
39789;BME280;25478;42.626;23.320;2022-10-16T05:57:33;93866.78;;;7.70;93.14
39789;BME280;25478;42.626;23.320;2022-10-16T05:59:59;93887.78;;;7.85;92.57
39789;BME280;25478;42.626;23.320;2022-10-16T06:02:24;93884.25;;;7.94;92.49
39789;BME280;25478;42.626;23.320;2022-10-16T06:04:53;93890.34;;;8.13;91.88
39789;BME280;25478;42.626;23.320;2022-10-16T06:07:19;93896.75;;;8.32;91.82
39789;BME280;25478;42.626;23.320;2022-10-16T06:09:50;93898.66;;;8.47;90.71
39789;BME280;25478;42.626;23.320;2022-10-16T06:12:16;93902.31;;;8.58;90.01
39789;BME280;25478;42.626;23.320;2022-10-16T06:14:42;93899.06;;;8.65;89.48
39789;BME280;25478;42.626;23.320;2022-10-16T06:17:08;93909.25;;;8.66;89.21
39789;BME280;25478;42.626;23.320;2022-10-16T06:19:33;93894.34;;;8.55;89.41
39789;BME280;25478;42.626;23.320;2022-10-16T06:21:59;93917.34;;;8.77;89.56
39789;BME280;25478;42.626;23.320;2022-10-16T06:24:24;93893.97;;;8.72;89.06
39789;BME280;25478;42.626;23.320;2022-10-16T06:26:50;93914.25;;;8.91;88.85
39789;BME280;25478;42.626;23.320;2022-10-16T06:29:15;93896.91;;;8.86;88.17
39789;BME280;25478;42.626;23.320;2022-10-16T06:31:41;93922.19;;;9.10;87.94
39789;BME280;25478;42.626;23.320;2022-10-16T06:34:09;93892.91;;;9.08;87.40
39789;BME280;25478;42.626;23.320;2022-10-16T06:36:36;93914.84;;;9.35;86.75
39789;BME280;25478;42.626;23.320;2022-10-16T06:39:02;93909.53;;;9.51;86.43
39789;BME280;25478;42.626;23.320;2022-10-16T06:41:28;93923.47;;;9.74;85.88
39789;BME280;25478;42.626;23.320;2022-10-16T06:43:54;93933.56;;;9.92;84.97
39789;BME280;25478;42.626;23.320;2022-10-16T06:46:22;93924.53;;;10.12;83.98
39789;BME280;25478;42.626;23.320;2022-10-16T06:48:48;93913.09;;;10.24;83.55
39789;BME280;25478;42.626;23.320;2022-10-16T06:51:18;93922.06;;;10.42;82.30
39789;BME280;25478;42.626;23.320;2022-10-16T06:53:49;93936.03;;;10.46;81.86
39789;BME280;25478;42.626;23.320;2022-10-16T06:56:17;93948.84;;;10.48;81.29
39789;BME280;25478;42.626;23.320;2022-10-16T06:58:43;93947.44;;;10.54;81.07
39789;BME280;25478;42.626;23.320;2022-10-16T07:01:11;93947.81;;;10.52;80.31
39789;BME280;25478;42.626;23.320;2022-10-16T07:03:38;93956.22;;;10.61;79.68
39789;BME280;25478;42.626;23.320;2022-10-16T07:06:06;93959.22;;;10.60;79.57
39789;BME280;25478;42.626;23.320;2022-10-16T07:08:36;93958.50;;;10.63;79.26
39789;BME280;25478;42.626;23.320;2022-10-16T07:11:04;93949.84;;;10.62;78.99
39789;BME280;25478;42.626;23.320;2022-10-16T07:13:33;93954.56;;;10.76;78.65
39789;BME280;25478;42.626;23.320;2022-10-16T07:16:07;93952.09;;;10.87;77.88
39789;BME280;25478;42.626;23.320;2022-10-16T07:18:33;93954.09;;;10.93;77.25
39789;BME280;25478;42.626;23.320;2022-10-16T07:21:04;93962.41;;;10.95;76.32
39789;BME280;25478;42.626;23.320;2022-10-16T07:23:30;93952.91;;;10.91;76.89
39789;BME280;25478;42.626;23.320;2022-10-16T07:25:55;93966.25;;;11.02;76.24
39789;BME280;25478;42.626;23.320;2022-10-16T07:28:21;93971.53;;;11.02;76.23
39789;BME280;25478;42.626;23.320;2022-10-16T07:30:47;93951.53;;;11.00;76.24
39789;BME280;25478;42.626;23.320;2022-10-16T07:33:13;93971.94;;;11.30;75.60
39789;BME280;25478;42.626;23.320;2022-10-16T07:35:47;93970.94;;;11.42;74.78
39789;BME280;25478;42.626;23.320;2022-10-16T07:38:13;93956.59;;;11.39;74.95
39789;BME280;25478;42.626;23.320;2022-10-16T07:40:38;93971.81;;;11.49;74.44
39789;BME280;25478;42.626;23.320;2022-10-16T07:43:04;93968.75;;;11.47;74.43
39789;BME280;25478;42.626;23.320;2022-10-16T07:45:30;93968.88;;;11.54;73.58
39789;BME280;25478;42.626;23.320;2022-10-16T07:47:56;93965.59;;;11.65;73.49
39789;BME280;25478;42.626;23.320;2022-10-16T07:50:21;93973.69;;;11.79;72.52
39789;BME280;25478;42.626;23.320;2022-10-16T07:52:47;93956.75;;;11.80;72.45
39789;BME280;25478;42.626;23.320;2022-10-16T07:55:12;93977.00;;;12.02;71.09
39789;BME280;25478;42.626;23.320;2022-10-16T07:57:38;93978.94;;;12.09;70.84
39789;BME280;25478;42.626;23.320;2022-10-16T08:00:04;93974.03;;;12.07;69.84
39789;BME280;25478;42.626;23.320;2022-10-16T08:02:37;93985.78;;;12.14;69.32
39789;BME280;25478;42.626;23.320;2022-10-16T08:05:03;93981.28;;;12.14;69.04
39789;BME280;25478;42.626;23.320;2022-10-16T08:07:28;93981.72;;;12.20;68.67
39789;BME280;25478;42.626;23.320;2022-10-16T08:09:54;93979.41;;;12.18;67.84
39789;BME280;25478;42.626;23.320;2022-10-16T08:12:21;93979.78;;;12.17;68.01
39789;BME280;25478;42.626;23.320;2022-10-16T08:14:47;93960.47;;;12.09;68.28
39789;BME280;25478;42.626;23.320;2022-10-16T08:17:14;93984.81;;;12.29;67.84
39789;BME280;25478;42.626;23.320;2022-10-16T08:19:39;93982.66;;;12.38;67.52
39789;BME280;25478;42.626;23.320;2022-10-16T08:22:05;93987.19;;;12.41;67.48
39789;BME280;25478;42.626;23.320;2022-10-16T08:24:30;93966.84;;;12.42;67.38
39789;BME280;25478;42.626;23.320;2022-10-16T08:26:57;93969.91;;;12.47;67.29
39789;BME280;25478;42.626;23.320;2022-10-16T08:29:23;93980.50;;;12.51;67.35
39789;BME280;25478;42.626;23.320;2022-10-16T08:31:48;93984.69;;;12.55;67.40
39789;BME280;25478;42.626;23.320;2022-10-16T08:34:14;93974.91;;;12.56;67.46
39789;BME280;25478;42.626;23.320;2022-10-16T08:36:39;93985.56;;;12.66;66.64
39789;BME280;25478;42.626;23.320;2022-10-16T08:39:05;93956.84;;;12.61;65.59
39789;BME280;25478;42.626;23.320;2022-10-16T08:49:37;93986.63;;;13.06;64.02
39789;BME280;25478;42.626;23.320;2022-10-16T08:52:10;93982.88;;;13.11;61.84
39789;BME280;25478;42.626;23.320;2022-10-16T08:54:43;93975.75;;;13.15;60.62
39789;BME280;25478;42.626;23.320;2022-10-16T08:57:21;93992.13;;;13.35;58.49
39789;BME280;25478;42.626;23.320;2022-10-16T08:59:47;93959.88;;;13.18;58.26
39789;BME280;25478;42.626;23.320;2022-10-16T09:05:29;93996.44;;;13.57;54.96
39789;BME280;25478;42.626;23.320;2022-10-16T09:08:16;93986.94;;;13.49;55.56
39789;BME280;25478;42.626;23.320;2022-10-16T09:18:48;93989.72;;;13.74;54.60
39789;BME280;25478;42.626;23.320;2022-10-16T09:21:31;93989.00;;;13.80;54.39
39789;BME280;25478;42.626;23.320;2022-10-16T09:24:18;93980.31;;;13.80;53.57
39789;BME280;25478;42.626;23.320;2022-10-16T09:26:45;93990.53;;;13.89;54.08
39789;BME280;25478;42.626;23.320;2022-10-16T09:29:15;93953.78;;;13.69;53.48
39789;BME280;25478;42.626;23.320;2022-10-16T09:31:41;93968.63;;;13.92;52.94
39789;BME280;25478;42.626;23.320;2022-10-16T09:34:35;93984.22;;;14.18;53.04
39789;BME280;25478;42.626;23.320;2022-10-16T09:37:03;93990.31;;;14.29;51.56
39789;BME280;25478;42.626;23.320;2022-10-16T09:39:29;93963.06;;;14.22;51.30
39789;BME280;25478;42.626;23.320;2022-10-16T09:41:55;93984.69;;;14.45;51.16
39789;BME280;25478;42.626;23.320;2022-10-16T09:44:28;93990.38;;;14.51;50.97
39789;BME280;25478;42.626;23.320;2022-10-16T09:47:16;93986.22;;;14.53;51.36
39789;BME280;25478;42.626;23.320;2022-10-16T09:52:23;93950.25;;;14.49;50.20
39789;BME280;25478;42.626;23.320;2022-10-16T09:54:56;93960.88;;;14.56;50.21
39789;BME280;25478;42.626;23.320;2022-10-16T09:57:22;93976.41;;;14.68;50.03
39789;BME280;25478;42.626;23.320;2022-10-16T09:59:51;93974.50;;;14.65;49.73
39789;BME280;25478;42.626;23.320;2022-10-16T10:02:20;93960.50;;;14.57;50.15
39789;BME280;25478;42.626;23.320;2022-10-16T10:04:51;93974.53;;;14.72;48.49
39789;BME280;25478;42.626;23.320;2022-10-16T10:07:32;93976.03;;;14.73;48.94
39789;BME280;25478;42.626;23.320;2022-10-16T10:10:01;93967.31;;;14.83;49.29
39789;BME280;25478;42.626;23.320;2022-10-16T10:12:28;93967.31;;;14.94;49.22
39789;BME280;25478;42.626;23.320;2022-10-16T10:14:56;93966.19;;;14.99;48.30
39789;BME280;25478;42.626;23.320;2022-10-16T10:17:25;93957.47;;;14.95;48.52
39789;BME280;25478;42.626;23.320;2022-10-16T10:19:59;93964.28;;;15.06;48.38
39789;BME280;25478;42.626;23.320;2022-10-16T10:30:44;93961.59;;;15.38;48.05
39789;BME280;25478;42.626;23.320;2022-10-16T10:46:50;93941.75;;;15.86;47.02
39789;BME280;25478;42.626;23.320;2022-10-16T10:57:22;93923.13;;;15.96;45.50
39789;BME280;25478;42.626;23.320;2022-10-16T11:16:02;93907.53;;;16.05;42.24
39789;BME280;25478;42.626;23.320;2022-10-16T11:21:14;93922.22;;;16.28;41.98
39789;BME280;25478;42.626;23.320;2022-10-16T11:23:50;93925.97;;;16.34;41.63
39789;BME280;25478;42.626;23.320;2022-10-16T11:26:25;93917.56;;;16.43;41.22
39789;BME280;25478;42.626;23.320;2022-10-16T11:28:54;93900.88;;;16.39;41.58
39789;BME280;25478;42.626;23.320;2022-10-16T11:31:36;93913.69;;;16.54;41.93
39789;BME280;25478;42.626;23.320;2022-10-16T11:36:58;93920.44;;;16.73;40.42
39789;BME280;25478;42.626;23.320;2022-10-16T11:39:28;93903.41;;;16.60;39.55
39789;BME280;25478;42.626;23.320;2022-10-16T11:49:47;93916.88;;;16.91;38.94
39789;BME280;25478;42.626;23.320;2022-10-16T11:52:36;93914.97;;;16.91;39.18
39789;BME280;25478;42.626;23.320;2022-10-16T11:57:38;93919.53;;;16.91;39.12
39789;BME280;25478;42.626;23.320;2022-10-16T12:00:08;93929.41;;;16.86;39.53
39789;BME280;25478;42.626;23.320;2022-10-16T12:08:12;93916.13;;;16.86;38.00
39789;BME280;25478;42.626;23.320;2022-10-16T12:10:41;93926.00;;;16.86;38.13
39789;BME280;25478;42.626;23.320;2022-10-16T12:16:23;93907.06;;;16.80;38.43
39789;BME280;25478;42.626;23.320;2022-10-16T12:18:49;93904.03;;;16.78;37.29
39789;BME280;25478;42.626;23.320;2022-10-16T12:21:16;93920.66;;;16.89;37.12
39789;BME280;25478;42.626;23.320;2022-10-16T12:23:58;93921.78;;;16.92;37.70
39789;BME280;25478;42.626;23.320;2022-10-16T12:26:25;93905.16;;;16.81;38.29
39789;BME280;25478;42.626;23.320;2022-10-16T12:28:52;93914.22;;;16.91;38.85
39789;BME280;25478;42.626;23.320;2022-10-16T12:31:17;93920.19;;;16.98;38.94
39789;BME280;25478;42.626;23.320;2022-10-16T12:33:57;93917.47;;;17.05;38.05
39789;BME280;25478;42.626;23.320;2022-10-16T12:36:32;93915.56;;;17.06;37.64
39789;BME280;25478;42.626;23.320;2022-10-16T12:38:59;93926.19;;;17.09;37.76
39789;BME280;25478;42.626;23.320;2022-10-16T12:41:32;93914.09;;;17.01;38.02
39789;BME280;25478;42.626;23.320;2022-10-16T12:43:59;93922.03;;;17.05;37.83
39789;BME280;25478;42.626;23.320;2022-10-16T12:51:39;93923.59;;;17.02;38.15
39789;BME280;25478;42.626;23.320;2022-10-16T12:54:38;93915.72;;;16.88;38.73
39789;BME280;25478;42.626;23.320;2022-10-16T12:57:17;93933.06;;;17.03;39.12
39789;BME280;25478;42.626;23.320;2022-10-16T13:11:44;93938.75;;;17.05;38.68
39789;BME280;25478;42.626;23.320;2022-10-16T13:20:18;93934.63;;;17.01;38.78
39789;BME280;25478;42.626;23.320;2022-10-16T13:25:35;93941.47;;;16.98;39.51
39789;BME280;25478;42.626;23.320;2022-10-16T13:28:08;93941.47;;;16.98;39.46
39789;BME280;25478;42.626;23.320;2022-10-16T13:35:50;93929.78;;;16.88;39.05
39789;BME280;25478;42.626;23.320;2022-10-16T13:38:18;93934.03;;;16.79;39.21
39789;BME280;25478;42.626;23.320;2022-10-16T13:43:22;93945.38;;;16.86;39.49
39789;BME280;25478;42.626;23.320;2022-10-16T13:48:25;93943.91;;;16.82;39.46
39789;BME280;25478;42.626;23.320;2022-10-16T13:51:02;93945.03;;;16.81;39.84
39789;BME280;25478;42.626;23.320;2022-10-16T13:53:30;93942.41;;;16.77;40.01
39789;BME280;25478;42.626;23.320;2022-10-16T13:55:56;93928.81;;;16.61;40.59
39789;BME280;25478;42.626;23.320;2022-10-16T13:58:22;93942.81;;;16.72;40.90
39789;BME280;25478;42.626;23.320;2022-10-16T14:00:58;93943.63;;;16.66;41.69
39789;BME280;25478;42.626;23.320;2022-10-16T14:03:26;93943.31;;;16.56;42.24
39789;BME280;25478;42.626;23.320;2022-10-16T14:05:55;93935.41;;;16.42;42.91
39789;BME280;25478;42.626;23.320;2022-10-16T14:08:23;93947.94;;;16.42;43.40
39789;BME280;25478;42.626;23.320;2022-10-16T14:10:53;93950.31;;;16.22;43.39
39789;BME280;25478;42.626;23.320;2022-10-16T14:15:54;93944.50;;;15.64;45.02
39789;BME280;25478;42.626;23.320;2022-10-16T14:18:24;93953.63;;;15.42;45.56
39789;BME280;25478;42.626;23.320;2022-10-16T14:20:50;93964.25;;;15.28;46.29
39789;BME280;25478;42.626;23.320;2022-10-16T14:25:46;93964.31;;;14.81;47.39
39789;BME280;25478;42.626;23.320;2022-10-16T14:28:17;93964.28;;;14.63;48.62
39789;BME280;25478;42.626;23.320;2022-10-16T14:30:55;93959.69;;;14.39;48.86
39789;BME280;25478;42.626;23.320;2022-10-16T14:36:02;93972.47;;;14.05;49.63
39789;BME280;25478;42.626;23.320;2022-10-16T14:38:29;93949.66;;;13.72;49.79
39789;BME280;25478;42.626;23.320;2022-10-16T14:40:57;93974.97;;;13.73;49.88
39789;BME280;25478;42.626;23.320;2022-10-16T14:43:33;93981.69;;;13.56;49.98
39789;BME280;25478;42.626;23.320;2022-10-16T14:46:01;93966.44;;;13.35;50.39
39789;BME280;25478;42.626;23.320;2022-10-16T14:48:27;93984.25;;;13.38;51.40
39789;BME280;25478;42.626;23.320;2022-10-16T14:50:53;93980.78;;;13.31;51.84
39789;BME280;25478;42.626;23.320;2022-10-16T14:53:19;93978.00;;;13.13;52.29
39789;BME280;25478;42.626;23.320;2022-10-16T14:55:45;93986.69;;;13.13;52.99
39789;BME280;25478;42.626;23.320;2022-10-16T14:58:22;93975.94;;;12.92;52.89
39789;BME280;25478;42.626;23.320;2022-10-16T15:00:48;93994.13;;;12.97;53.20
39789;BME280;25478;42.626;23.320;2022-10-16T15:03:14;93943.97;;;12.56;53.36
39789;BME280;25478;42.626;23.320;2022-10-16T15:05:40;93999.25;;;12.79;53.84
39789;BME280;25478;42.626;23.320;2022-10-16T15:08:05;94003.34;;;12.73;53.93
39789;BME280;25478;42.626;23.320;2022-10-16T15:10:33;93986.97;;;12.57;54.57
39789;BME280;25478;42.626;23.320;2022-10-16T15:13:00;93988.78;;;12.49;55.25
39789;BME280;25478;42.626;23.320;2022-10-16T15:15:37;94003.13;;;12.48;55.70
39789;BME280;25478;42.626;23.320;2022-10-16T15:18:04;94003.78;;;12.38;56.41
39789;BME280;25478;42.626;23.320;2022-10-16T15:20:32;94013.50;;;12.30;56.53
39789;BME280;25478;42.626;23.320;2022-10-16T15:23:03;93996.28;;;12.10;56.63
39789;BME280;25478;42.626;23.320;2022-10-16T15:25:48;94010.66;;;12.13;56.57
39789;BME280;25478;42.626;23.320;2022-10-16T15:28:15;94011.72;;;12.04;57.29
39789;BME280;25478;42.626;23.320;2022-10-16T15:30:41;94013.88;;;11.95;57.73
39789;BME280;25478;42.626;23.320;2022-10-16T15:33:16;94015.66;;;11.88;58.12
39789;BME280;25478;42.626;23.320;2022-10-16T15:35:41;94017.97;;;11.66;57.83